createdAt,value
2022-08-18T00:00:54.821Z,21.30
2022-08-18T00:02:28.705Z,21.34
2022-08-18T00:03:57.392Z,21.33
2022-08-18T00:04:55.351Z,21.34
2022-08-18T00:05:58.965Z,21.32
2022-08-18T00:07:00.524Z,21.29
2022-08-18T00:08:02.525Z,21.21
2022-08-18T00:09:07.095Z,21.17
2022-08-18T00:10:15.590Z,21.24
2022-08-18T00:11:20.924Z,21.21
2022-08-18T00:12:25.237Z,21.13
2022-08-18T00:13:27.278Z,21.06
2022-08-18T00:14:29.433Z,21.08
2022-08-18T00:15:30.998Z,21.19
2022-08-18T00:16:32.719Z,21.32
2022-08-18T00:17:36.381Z,21.45
2022-08-18T00:18:37.970Z,21.54
2022-08-18T00:19:45.381Z,21.58
2022-08-18T00:20:48.887Z,21.69
2022-08-18T00:21:50.560Z,21.77
2022-08-18T00:22:53.259Z,21.85
2022-08-18T00:23:55.013Z,21.90
2022-08-18T00:24:57.618Z,21.94
2022-08-18T00:26:00.335Z,21.92
2022-08-18T00:27:02.245Z,21.94
2022-08-18T00:28:05.166Z,21.87
2022-08-18T00:29:06.764Z,21.89
2022-08-18T00:30:12.419Z,21.98
2022-08-18T00:31:13.981Z,22.04
2022-08-18T00:32:18.265Z,22.10
2022-08-18T00:33:19.849Z,22.17
2022-08-18T00:34:21.692Z,22.15
2022-08-18T00:35:29.054Z,22.20
2022-08-18T00:36:32.498Z,22.19
2022-08-18T00:37:34.764Z,22.21
2022-08-18T00:38:36.352Z,22.20
2022-08-18T00:39:38.857Z,22.16
2022-08-18T00:40:49.539Z,22.12
2022-08-18T00:41:51.153Z,22.18
2022-08-18T00:42:55.792Z,22.13
2022-08-18T00:44:00.337Z,22.02
2022-08-18T00:45:05.353Z,22.03
2022-08-18T00:46:11.839Z,22.06
2022-08-18T00:47:13.510Z,22.06
2022-08-18T00:48:35.452Z,21.96
2022-08-18T00:49:40.833Z,21.94
2022-08-18T00:50:57.931Z,21.96
2022-08-18T00:52:00.829Z,21.97
2022-08-18T00:53:10.941Z,21.97
2022-08-18T00:54:19.283Z,21.97
2022-08-18T00:55:22.552Z,21.96
2022-08-18T00:56:31.470Z,21.97
2022-08-18T00:57:34.113Z,21.98
2022-08-18T00:58:46.133Z,21.97
2022-08-18T01:00:04.488Z,21.99
2022-08-18T01:01:08.604Z,22.04
2022-08-18T01:02:19.245Z,22.08
2022-08-18T01:03:24.668Z,22.09
2022-08-18T01:04:35.741Z,22.04
2022-08-18T01:05:45.489Z,22.03
2022-08-18T01:06:55.002Z,22.03
2022-08-18T01:07:57.109Z,22.06
2022-08-18T01:08:59.326Z,22.07
2022-08-18T01:10:00.917Z,22.04
2022-08-18T01:11:03.322Z,22.04
2022-08-18T01:12:20.789Z,22.05
2022-08-18T01:13:29.694Z,22.02
2022-08-18T01:14:31.839Z,22.04
2022-08-18T01:15:34.027Z,21.99
2022-08-18T01:16:57.302Z,22.00
2022-08-18T01:18:21.983Z,21.97
2022-08-18T01:19:42.129Z,22.02
2022-08-18T01:21:22.033Z,21.99
2022-08-18T01:22:32.801Z,21.84
2022-08-18T01:23:36.828Z,21.68
2022-08-18T01:24:58.928Z,21.48
2022-08-18T01:26:00.728Z,21.21
2022-08-18T01:27:02.386Z,21.10
2022-08-18T01:28:05.368Z,20.94
2022-08-18T01:29:14.162Z,20.88
2022-08-18T01:30:25.413Z,20.79
2022-08-18T01:31:38.658Z,20.66
2022-08-18T01:32:41.714Z,20.58
2022-08-18T01:33:44.589Z,20.53
2022-08-18T01:34:52.051Z,20.58
2022-08-18T01:35:54.649Z,20.68
2022-08-18T01:36:57.378Z,20.62
2022-08-18T01:37:58.974Z,20.58
2022-08-18T01:39:00.678Z,20.53
2022-08-18T01:41:23.095Z,20.49
2022-08-18T01:41:31.106Z,20.47
2022-08-18T01:42:33.867Z,20.46
2022-08-18T01:43:37.407Z,20.54
2022-08-18T01:44:41.779Z,20.61
2022-08-18T01:45:44.050Z,20.70
2022-08-18T01:46:45.762Z,20.79
2022-08-18T01:47:48.615Z,20.89
2022-08-18T01:48:50.938Z,20.95
2022-08-18T01:49:53.356Z,20.99
2022-08-18T01:50:57.015Z,21.03
2022-08-18T01:51:58.625Z,21.14
2022-08-18T01:53:01.283Z,21.25
2022-08-18T01:54:04.507Z,21.35
2022-08-18T01:55:08.004Z,21.42
2022-08-18T01:56:09.618Z,21.50
2022-08-18T01:57:14.700Z,21.56
2022-08-18T01:58:16.344Z,21.53
2022-08-18T01:59:18.048Z,21.48
2022-08-18T02:00:19.731Z,21.32
2022-08-18T02:01:23.605Z,21.24
2022-08-18T02:02:38.918Z,21.19
2022-08-18T02:03:44.271Z,21.19
2022-08-18T02:04:47.597Z,21.22
2022-08-18T02:05:51.191Z,21.25
2022-08-18T02:06:53.264Z,21.31
2022-08-18T02:07:55.187Z,21.37
2022-08-18T02:08:56.793Z,21.41
2022-08-18T02:09:59.293Z,21.46
2022-08-18T02:11:01.309Z,21.50
2022-08-18T02:12:03.557Z,21.49
2022-08-18T02:13:05.995Z,21.51
2022-08-18T02:14:07.855Z,21.51
2022-08-18T02:15:10.802Z,21.38
2022-08-18T02:16:12.400Z,21.27
2022-08-18T02:17:14.566Z,20.98
2022-08-18T02:18:32.577Z,20.98
2022-08-18T02:19:43.870Z,21.04
2022-08-18T02:20:45.599Z,21.15
2022-08-18T02:21:47.212Z,21.20
2022-08-18T02:22:50.105Z,21.26
2022-08-18T02:23:53.027Z,21.31
2022-08-18T02:24:57.255Z,21.36
2022-08-18T02:25:59.163Z,21.41
2022-08-18T02:27:01.024Z,21.41
2022-08-18T02:28:03.315Z,21.37
2022-08-18T02:29:04.947Z,21.17
2022-08-18T02:30:09.972Z,20.95
2022-08-18T02:31:17.420Z,20.60
2022-08-18T02:32:19.383Z,20.47
2022-08-18T02:33:21.494Z,20.40
2022-08-18T02:34:23.571Z,20.29
2022-08-18T02:35:25.595Z,20.14
2022-08-18T02:36:28.437Z,19.98
2022-08-18T02:37:31.225Z,19.84
2022-08-18T02:38:33.728Z,19.73
2022-08-18T02:39:38.093Z,19.59
2022-08-18T02:40:39.718Z,19.60
2022-08-18T02:41:42.126Z,19.57
2022-08-18T02:42:45.567Z,19.51
2022-08-18T02:43:48.460Z,19.53
2022-08-18T02:44:50.419Z,19.54
2022-08-18T02:45:52.006Z,19.52
2022-08-18T02:46:54.739Z,19.50
2022-08-18T02:47:56.660Z,19.38
2022-08-18T02:49:00.559Z,19.40
2022-08-18T02:50:02.226Z,19.40
2022-08-18T02:51:14.919Z,19.45
2022-08-18T02:52:17.397Z,19.54
2022-08-18T02:53:25.096Z,19.62
2022-08-18T02:54:26.675Z,19.70
2022-08-18T02:55:29.387Z,19.78
2022-08-18T02:56:40.437Z,19.86
2022-08-18T02:57:45.917Z,19.93
2022-08-18T02:58:48.232Z,19.82
2022-08-18T02:59:49.810Z,19.79
2022-08-18T03:00:51.572Z,19.77
2022-08-18T03:01:56.453Z,19.71
2022-08-18T03:02:58.212Z,19.69
2022-08-18T03:04:01.083Z,19.68
2022-08-18T03:05:02.774Z,19.70
2022-08-18T03:06:05.029Z,19.72
2022-08-18T03:07:07.840Z,19.79
2022-08-18T03:08:10.545Z,19.78
2022-08-18T03:09:14.930Z,19.83
2022-08-18T03:10:32.350Z,19.93
2022-08-18T03:11:36.674Z,20.12
2022-08-18T03:12:38.282Z,20.23
2022-08-18T03:13:39.843Z,20.34
2022-08-18T03:14:41.670Z,20.42
2022-08-18T03:15:44.694Z,20.46
2022-08-18T03:16:54.046Z,20.50
2022-08-18T03:17:58.227Z,20.52
2022-08-18T03:19:01.776Z,20.58
2022-08-18T03:20:04.529Z,20.66
2022-08-18T03:21:12.424Z,20.75
2022-08-18T03:22:27.781Z,20.78
2022-08-18T03:23:31.138Z,20.76
2022-08-18T03:24:33.149Z,20.78
2022-08-18T03:25:34.880Z,20.82
2022-08-18T03:26:41.830Z,20.87
2022-08-18T03:27:43.487Z,20.92
2022-08-18T03:28:48.138Z,21.00
2022-08-18T03:29:51.135Z,21.06
2022-08-18T03:30:52.712Z,21.15
2022-08-18T03:31:54.487Z,21.20
2022-08-18T03:32:57.816Z,21.25
2022-08-18T03:34:01.628Z,21.27
2022-08-18T03:35:03.558Z,21.28
2022-08-18T03:36:07.842Z,21.27
2022-08-18T03:37:10.092Z,21.32
2022-08-18T03:38:11.821Z,21.34
2022-08-18T03:39:14.106Z,21.34
2022-08-18T03:40:15.765Z,21.33
2022-08-18T03:41:59.130Z,21.23
2022-08-18T03:42:42.110Z,21.28
2022-08-18T03:43:51.477Z,21.26
2022-08-18T03:44:53.299Z,21.25
2022-08-18T03:45:55.142Z,21.21
2022-08-18T03:46:57.498Z,21.19
2022-08-18T03:48:00.726Z,21.19
2022-08-18T03:49:02.570Z,20.90
2022-08-18T03:50:04.428Z,20.82
2022-08-18T03:51:09.290Z,20.81
2022-08-18T03:52:11.208Z,20.74
2022-08-18T03:53:12.892Z,20.73
2022-08-18T03:54:16.611Z,20.78
2022-08-18T03:55:19.099Z,20.69
2022-08-18T03:56:25.009Z,20.59
2022-08-18T03:57:26.576Z,20.62
2022-08-18T03:58:28.666Z,20.60
2022-08-18T03:59:32.240Z,20.61
2022-08-18T04:00:37.592Z,20.60
2022-08-18T04:01:42.135Z,20.46
2022-08-18T04:02:43.792Z,20.40
2022-08-18T04:03:48.199Z,20.25
2022-08-18T04:04:51.434Z,20.19
2022-08-18T04:05:53.091Z,20.17
2022-08-18T04:06:58.481Z,20.01
2022-08-18T04:08:00.340Z,19.91
2022-08-18T04:09:05.085Z,19.86
2022-08-18T04:10:07.029Z,19.66
2022-08-18T04:11:18.991Z,19.50
2022-08-18T04:12:20.594Z,19.41
2022-08-18T04:13:22.438Z,19.30
2022-08-18T04:14:30.609Z,19.13
2022-08-18T04:15:32.848Z,18.98
2022-08-18T04:16:35.137Z,18.80
2022-08-18T04:17:36.954Z,18.67
2022-08-18T04:19:07.807Z,18.60
2022-08-18T04:20:10.763Z,18.59
2022-08-18T04:21:13.741Z,18.67
2022-08-18T04:22:17.586Z,18.78
2022-08-18T04:23:21.190Z,18.90
2022-08-18T04:24:23.137Z,18.98
2022-08-18T04:25:30.760Z,19.03
2022-08-18T04:26:39.114Z,19.11
2022-08-18T04:27:42.830Z,19.23
2022-08-18T04:28:44.623Z,19.47
2022-08-18T04:29:47.420Z,19.73
2022-08-18T04:30:49.044Z,19.95
2022-08-18T04:31:52.017Z,20.14
2022-08-18T04:32:53.755Z,20.31
2022-08-18T04:33:56.948Z,20.52
2022-08-18T04:34:58.653Z,20.72
2022-08-18T04:36:18.727Z,20.89
2022-08-18T04:37:22.754Z,21.05
2022-08-18T04:38:24.517Z,21.21
2022-08-18T04:39:26.244Z,21.39
2022-08-18T04:40:27.861Z,21.53
2022-08-18T04:41:29.633Z,21.65
2022-08-18T04:42:31.456Z,21.78
2022-08-18T04:43:33.738Z,21.93
2022-08-18T04:44:37.901Z,22.10
2022-08-18T04:45:40.133Z,22.30
2022-08-18T04:46:46.288Z,22.44
2022-08-18T04:47:47.893Z,22.58
2022-08-18T04:48:50.814Z,22.74
2022-08-18T04:49:52.413Z,22.91
2022-08-18T04:50:54.301Z,23.06
2022-08-18T04:52:37.140Z,23.23
2022-08-18T04:53:46.103Z,23.42
2022-08-18T04:54:47.736Z,23.48
2022-08-18T04:55:54.989Z,23.54
2022-08-18T04:56:56.737Z,23.60
2022-08-18T04:57:59.452Z,23.72
2022-08-18T04:59:02.727Z,23.78
2022-08-18T05:00:06.513Z,23.83
2022-08-18T05:01:09.973Z,23.86
2022-08-18T05:02:14.962Z,23.89
2022-08-18T05:03:16.666Z,23.93
2022-08-18T05:04:18.262Z,24.04
2022-08-18T05:05:20.062Z,24.20
2022-08-18T05:06:27.018Z,24.34
2022-08-18T05:07:28.648Z,24.47
2022-08-18T05:08:31.217Z,24.60
2022-08-18T05:09:41.296Z,24.67
2022-08-18T05:10:43.126Z,24.78
2022-08-18T05:11:44.728Z,24.84
2022-08-18T05:12:48.415Z,24.87
2022-08-18T05:13:52.233Z,24.93
2022-08-18T05:14:57.184Z,24.98
2022-08-18T05:16:16.701Z,25.06
2022-08-18T05:17:21.188Z,25.13
2022-08-18T05:18:26.674Z,25.21
2022-08-18T05:19:29.059Z,25.33
2022-08-18T05:20:31.858Z,25.49
2022-08-18T05:21:34.587Z,25.65
2022-08-18T05:22:41.190Z,25.80
2022-08-18T05:23:44.337Z,25.87
2022-08-18T05:24:46.041Z,25.97
2022-08-18T05:25:47.739Z,26.10
2022-08-18T05:26:55.915Z,26.19
2022-08-18T05:27:57.651Z,26.30
2022-08-18T05:29:04.199Z,26.42
2022-08-18T05:30:19.891Z,26.51
2022-08-18T05:31:26.271Z,26.64
2022-08-18T05:32:48.147Z,26.78
2022-08-18T05:33:53.015Z,26.87
2022-08-18T05:34:54.671Z,26.97
2022-08-18T05:36:05.852Z,26.96
2022-08-18T05:37:47.569Z,26.76
2022-08-18T05:39:11.531Z,26.00
2022-08-18T05:40:14.592Z,25.95
2022-08-18T05:41:41.659Z,25.91
2022-08-18T05:42:43.772Z,25.89
2022-08-18T05:43:51.938Z,26.14
2022-08-18T05:44:55.738Z,26.38
2022-08-18T05:45:59.614Z,26.62
2022-08-18T05:47:06.595Z,26.61
2022-08-18T05:48:08.218Z,26.65
2022-08-18T05:49:11.071Z,26.82
2022-08-18T05:50:17.373Z,26.96
2022-08-18T05:51:33.831Z,27.10
2022-08-18T05:52:56.132Z,27.26
2022-08-18T05:54:17.166Z,27.42
2022-08-18T05:55:58.318Z,27.60
2022-08-18T05:57:05.540Z,27.78
2022-08-18T05:58:15.848Z,27.79
2022-08-18T05:59:28.811Z,27.82
2022-08-18T06:00:31.755Z,27.94
2022-08-18T06:01:41.523Z,28.04
2022-08-18T06:03:11.291Z,28.21
2022-08-18T06:04:34.470Z,28.29
2022-08-18T06:05:44.801Z,28.46
2022-08-18T06:06:52.857Z,28.49
2022-08-18T06:08:06.050Z,28.49
2022-08-18T06:09:26.062Z,28.61
2022-08-18T06:10:27.944Z,28.65
2022-08-18T06:11:29.664Z,28.73
2022-08-18T06:12:46.599Z,28.85
2022-08-18T06:13:49.895Z,28.92
2022-08-18T06:15:05.895Z,29.02
2022-08-18T06:16:41.866Z,29.01
2022-08-18T06:18:04.777Z,29.10
2022-08-18T06:19:36.286Z,29.25
2022-08-18T06:21:11.896Z,29.34
2022-08-18T06:22:32.519Z,29.47
2022-08-18T06:24:15.722Z,29.59
2022-08-18T06:25:25.732Z,29.52
2022-08-18T06:26:45.909Z,29.66
2022-08-18T06:28:08.434Z,29.72
2022-08-18T06:29:25.274Z,29.54
2022-08-18T06:30:42.080Z,29.40
2022-08-18T06:32:10.334Z,29.47
2022-08-18T06:33:34.669Z,28.99
2022-08-18T06:34:47.614Z,28.20
2022-08-18T06:35:55.138Z,28.01
2022-08-18T06:37:24.363Z,28.18
2022-08-18T06:38:45.503Z,28.23
2022-08-18T06:39:50.898Z,28.30
2022-08-18T06:41:07.836Z,27.94
2022-08-18T06:42:09.588Z,27.91
2022-08-18T06:43:15.940Z,27.89
2022-08-18T06:44:32.467Z,28.22
2022-08-18T06:45:40.048Z,28.50
2022-08-18T06:46:56.077Z,28.85
2022-08-18T06:48:06.011Z,28.81
2022-08-18T06:49:39.953Z,28.66
2022-08-18T06:51:00.875Z,29.12
2022-08-18T06:52:26.450Z,29.51
2022-08-18T06:53:55.545Z,29.84
2022-08-18T06:55:00.786Z,30.05
2022-08-18T06:56:26.194Z,30.21
2022-08-18T06:57:41.022Z,30.33
2022-08-18T06:58:42.633Z,30.52
2022-08-18T06:59:55.749Z,30.75
2022-08-18T07:01:02.491Z,30.79
2022-08-18T07:02:26.862Z,30.67
2022-08-18T07:03:37.912Z,30.14
2022-08-18T07:04:58.058Z,30.07
2022-08-18T07:06:11.586Z,30.27
2022-08-18T07:07:17.503Z,30.33
2022-08-18T07:08:30.775Z,30.22
2022-08-18T07:09:34.219Z,30.38
2022-08-18T07:10:42.059Z,30.62
2022-08-18T07:12:04.309Z,30.86
2022-08-18T07:13:14.558Z,30.72
2022-08-18T07:14:25.713Z,30.79
2022-08-18T07:15:27.334Z,30.98
2022-08-18T07:16:54.462Z,30.63
2022-08-18T07:17:50.706Z,29.77
2022-08-18T07:18:52.618Z,29.20
2022-08-18T07:20:01.025Z,29.04
2022-08-18T07:21:02.708Z,29.17
2022-08-18T07:22:17.423Z,29.45
2022-08-18T07:23:25.408Z,29.55
2022-08-18T07:24:34.204Z,29.28
2022-08-18T07:25:44.293Z,29.22
2022-08-18T07:27:05.908Z,29.07
2022-08-18T07:28:07.653Z,29.03
2022-08-18T07:29:16.111Z,29.11
2022-08-18T07:30:19.292Z,29.15
2022-08-18T07:31:42.912Z,29.09
2022-08-18T07:33:05.221Z,28.92
2022-08-18T07:34:21.740Z,29.30
2022-08-18T07:35:31.229Z,29.49
2022-08-18T07:36:50.207Z,29.67
2022-08-18T07:37:56.839Z,29.55
2022-08-18T07:39:15.567Z,29.49
2022-08-18T07:40:31.595Z,29.70
2022-08-18T07:41:50.869Z,29.81
2022-08-18T07:43:03.872Z,29.97
2022-08-18T07:44:13.997Z,30.14
2022-08-18T07:45:24.075Z,30.32
2022-08-18T07:46:45.454Z,30.54
2022-08-18T07:47:53.301Z,30.77
2022-08-18T07:48:56.568Z,30.92
2022-08-18T07:50:16.957Z,30.84
2022-08-18T07:51:43.434Z,30.64
2022-08-18T07:52:59.570Z,30.55
2022-08-18T07:54:48.960Z,30.16
2022-08-18T07:55:56.035Z,30.60
2022-08-18T07:57:04.197Z,30.89
2022-08-18T07:58:14.720Z,31.05
2022-08-18T07:59:24.432Z,31.18
2022-08-18T08:01:02.081Z,31.25
2022-08-18T08:02:15.720Z,31.33
2022-08-18T08:03:47.230Z,31.44
2022-08-18T08:05:10.000Z,31.60
2022-08-18T08:06:37.840Z,31.68
2022-08-18T08:08:25.274Z,31.82
2022-08-18T08:09:58.793Z,31.97
2022-08-18T08:11:06.662Z,31.95
2022-08-18T08:12:31.606Z,31.92
2022-08-18T08:13:56.406Z,32.04
2022-08-18T08:15:12.632Z,32.11
2022-08-18T08:16:26.368Z,32.11
2022-08-18T08:17:43.085Z,32.04
2022-08-18T08:18:54.946Z,31.89
2022-08-18T08:20:08.447Z,31.73
2022-08-18T08:21:19.966Z,31.80
2022-08-18T08:22:43.305Z,31.54
2022-08-18T08:23:54.401Z,31.41
2022-08-18T08:25:42.817Z,31.73
2022-08-18T08:26:57.438Z,31.99
2022-08-18T08:28:14.382Z,31.71
2022-08-18T08:29:33.929Z,31.34
2022-08-18T08:31:33.096Z,31.45
2022-08-18T08:32:48.300Z,31.89
2022-08-18T08:34:14.175Z,31.97
2022-08-18T08:35:48.868Z,31.87
2022-08-18T08:36:46.897Z,31.98
2022-08-18T08:38:38.771Z,32.27
2022-08-18T08:39:45.307Z,32.65
2022-08-18T08:40:51.325Z,32.80
2022-08-18T08:42:29.735Z,32.95
2022-08-18T08:43:26.043Z,33.08
2022-08-18T08:44:35.197Z,33.00
2022-08-18T08:45:59.654Z,32.96
2022-08-18T08:47:10.621Z,32.95
2022-08-18T08:48:25.281Z,32.85
2022-08-18T08:49:35.878Z,32.52
2022-08-18T08:50:59.798Z,32.03
2022-08-18T08:52:19.005Z,32.07
2022-08-18T08:53:29.918Z,32.25
2022-08-18T08:54:46.666Z,32.45
2022-08-18T08:55:55.044Z,32.58
2022-08-18T08:57:01.339Z,32.78
2022-08-18T08:58:21.661Z,32.97
2022-08-18T08:59:26.353Z,32.96
2022-08-18T09:00:29.397Z,32.96
2022-08-18T09:01:37.554Z,33.01
2022-08-18T09:03:31.573Z,33.04
2022-08-18T09:05:09.475Z,32.85
2022-08-18T09:06:30.373Z,32.74
2022-08-18T09:07:42.070Z,32.82
2022-08-18T09:09:02.145Z,32.93
2022-08-18T09:10:18.592Z,32.97
2022-08-18T09:11:41.506Z,32.99
2022-08-18T09:12:54.704Z,33.17
2022-08-18T09:14:17.879Z,33.27
2022-08-18T09:15:34.813Z,33.23
2022-08-18T09:16:52.794Z,33.20
2022-08-18T09:18:13.000Z,33.13
2022-08-18T09:19:20.405Z,33.13
2022-08-18T09:20:49.489Z,33.17
2022-08-18T09:21:59.183Z,33.27
2022-08-18T09:23:41.263Z,33.33
2022-08-18T09:24:51.065Z,33.28
2022-08-18T09:25:56.624Z,33.26
2022-08-18T09:27:23.040Z,33.27
2022-08-18T09:28:27.947Z,33.37
2022-08-18T09:29:44.129Z,33.26
2022-08-18T09:31:08.747Z,33.28
2022-08-18T09:32:19.512Z,33.34
2022-08-18T09:33:45.783Z,33.41
2022-08-18T09:36:40.234Z,33.20
2022-08-18T09:38:12.548Z,33.25
2022-08-18T09:39:54.537Z,33.32
2022-08-18T09:41:24.664Z,33.30
2022-08-18T09:42:48.447Z,33.42
2022-08-18T09:44:12.103Z,33.48
2022-08-18T09:45:33.640Z,33.38
2022-08-18T09:46:46.456Z,33.37
2022-08-18T09:48:02.790Z,33.38
2022-08-18T09:49:26.619Z,33.36
2022-08-18T09:50:28.546Z,33.38
2022-08-18T09:51:40.092Z,33.35
2022-08-18T09:52:42.816Z,33.40
2022-08-18T09:53:46.068Z,33.51
2022-08-18T09:54:58.956Z,33.55
2022-08-18T09:56:05.062Z,33.56
2022-08-18T09:57:24.486Z,33.62
2022-08-18T09:58:26.331Z,33.55
2022-08-18T09:59:34.462Z,33.27
2022-08-18T10:00:36.306Z,33.17
2022-08-18T10:01:41.970Z,33.03
2022-08-18T10:02:50.438Z,32.96
2022-08-18T10:04:14.073Z,32.89
2022-08-18T10:05:15.950Z,32.96
2022-08-18T10:06:19.415Z,33.11
2022-08-18T10:07:41.993Z,33.20
2022-08-18T10:12:46.626Z,33.10
2022-08-18T10:13:52.017Z,33.11
2022-08-18T10:15:32.882Z,33.09
2022-08-18T10:17:24.447Z,33.16
2022-08-18T10:18:28.907Z,33.19
2022-08-18T10:19:42.870Z,33.25
2022-08-18T10:20:47.902Z,33.25
2022-08-18T10:21:58.593Z,33.21
2022-08-18T10:23:00.938Z,33.13
2022-08-18T10:24:32.169Z,33.13
2022-08-18T10:25:38.091Z,33.18
2022-08-18T10:26:54.250Z,33.18
2022-08-18T10:27:57.346Z,33.22
2022-08-18T10:29:03.913Z,33.29
2022-08-18T10:30:34.646Z,33.31
2022-08-18T10:31:55.378Z,33.38
2022-08-18T10:32:58.101Z,33.42
2022-08-18T10:34:16.046Z,33.53
2022-08-18T10:35:36.899Z,33.56
2022-08-18T10:36:46.119Z,33.57
2022-08-18T10:37:49.240Z,33.58
2022-08-18T10:38:53.579Z,33.52
2022-08-18T10:45:00.698Z,33.42
2022-08-18T10:46:30.583Z,33.46
2022-08-18T10:47:33.475Z,33.49
2022-08-18T10:48:35.752Z,33.52
2022-08-18T10:49:46.925Z,33.58
2022-08-18T10:51:21.378Z,33.67
2022-08-18T10:52:35.290Z,33.73
2022-08-18T10:53:48.323Z,33.85
2022-08-18T10:55:10.194Z,33.89
2022-08-18T10:56:28.450Z,33.81
2022-08-18T10:57:41.241Z,33.74
2022-08-18T10:59:08.322Z,33.65
2022-08-18T11:00:20.353Z,33.61
2022-08-18T11:01:45.144Z,33.58
2022-08-18T11:03:13.903Z,33.55
2022-08-18T11:04:34.118Z,33.57
2022-08-18T11:05:38.231Z,33.47
2022-08-18T11:06:49.011Z,33.47
2022-08-18T11:07:58.747Z,33.65
2022-08-18T11:09:02.611Z,33.76
2022-08-18T11:10:57.990Z,33.80
2022-08-18T11:11:52.517Z,33.81
2022-08-18T11:14:37.430Z,34.05
2022-08-18T11:16:13.582Z,34.11
2022-08-18T11:17:47.990Z,34.14
2022-08-18T11:18:58.314Z,34.11
2022-08-18T11:20:01.973Z,34.04
2022-08-18T11:21:30.572Z,34.05
2022-08-18T11:22:35.666Z,34.03
2022-08-18T11:23:37.351Z,34.08
2022-08-18T11:24:44.935Z,34.07
2022-08-18T11:25:48.393Z,34.11
2022-08-18T11:27:03.048Z,34.21
2022-08-18T11:28:15.594Z,34.30
2022-08-18T11:29:37.899Z,34.34
2022-08-18T11:30:44.000Z,34.30
2022-08-18T11:31:52.729Z,34.27
2022-08-18T11:32:55.531Z,34.30
2022-08-18T11:33:57.431Z,34.24
2022-08-18T11:34:59.553Z,34.24
2022-08-18T11:36:01.734Z,34.17
2022-08-18T11:37:49.260Z,34.11
2022-08-18T11:38:56.603Z,34.07
2022-08-18T11:40:02.235Z,34.16
2022-08-18T11:41:19.302Z,34.12
2022-08-18T11:42:29.301Z,34.14
2022-08-18T11:45:05.050Z,34.17
2022-08-18T11:46:28.127Z,34.15
2022-08-18T11:47:33.585Z,34.14
2022-08-18T11:48:42.420Z,34.17
2022-08-18T11:50:09.332Z,34.17
2022-08-18T11:51:24.137Z,34.21
2022-08-18T11:52:34.094Z,34.17
2022-08-18T11:53:58.029Z,34.23
2022-08-18T11:55:16.449Z,34.21
2022-08-18T11:56:38.181Z,34.23
2022-08-18T11:57:51.527Z,34.23
2022-08-18T11:58:58.077Z,34.15
2022-08-18T12:00:00.930Z,34.16
2022-08-18T12:01:03.270Z,34.20
2022-08-18T12:02:07.027Z,34.30
2022-08-18T12:03:15.419Z,34.28
2022-08-18T12:04:22.077Z,34.29
2022-08-18T12:05:23.701Z,34.32
2022-08-18T12:06:29.858Z,34.33
2022-08-18T12:07:35.218Z,34.40
2022-08-18T12:08:57.949Z,34.38
2022-08-18T12:10:21.129Z,34.45
2022-08-18T12:11:41.166Z,34.50
2022-08-18T12:12:53.539Z,34.59
2022-08-18T12:14:30.313Z,34.56
2022-08-18T12:15:43.671Z,34.52
2022-08-18T12:16:50.252Z,34.41
2022-08-18T12:17:53.664Z,34.35
2022-08-18T12:18:55.641Z,34.36
2022-08-18T12:19:59.838Z,34.34
2022-08-18T12:21:03.034Z,34.31
2022-08-18T12:22:17.701Z,34.25
2022-08-18T12:23:19.348Z,34.26
2022-08-18T12:24:26.326Z,34.39
2022-08-18T12:25:30.961Z,34.37
2022-08-18T12:26:38.487Z,34.44
2022-08-18T12:27:45.304Z,34.46
2022-08-18T12:28:48.113Z,34.39
2022-08-18T12:29:54.075Z,34.37
2022-08-18T12:30:57.485Z,34.35
2022-08-18T12:31:59.248Z,34.39
2022-08-18T12:35:48.280Z,34.35
2022-08-18T12:36:52.117Z,34.35
2022-08-18T12:37:59.635Z,34.44
2022-08-18T12:39:05.184Z,34.46
2022-08-18T12:40:08.666Z,34.44
2022-08-18T12:41:12.100Z,34.38
2022-08-18T12:42:14.464Z,34.33
2022-08-18T12:43:16.088Z,34.36
2022-08-18T12:44:18.365Z,34.42
2022-08-18T12:45:22.975Z,34.52
2022-08-18T12:46:25.561Z,34.52
2022-08-18T12:47:31.061Z,34.56
2022-08-18T12:48:32.969Z,34.64
2022-08-18T12:49:36.325Z,34.67
2022-08-18T12:52:03.553Z,34.67
2022-08-18T12:53:05.770Z,34.59
2022-08-18T12:54:07.503Z,34.52
2022-08-18T12:55:21.652Z,34.51
2022-08-18T12:56:30.538Z,34.44
2022-08-18T12:57:51.770Z,34.46
2022-08-18T12:58:54.779Z,34.45
2022-08-18T12:59:56.945Z,34.46
2022-08-18T13:00:59.702Z,34.47
2022-08-18T13:02:02.196Z,34.54
2022-08-18T13:03:04.021Z,34.59
2022-08-18T13:05:30.031Z,34.70
2022-08-18T13:06:35.669Z,34.61
2022-08-18T13:07:37.250Z,34.55
2022-08-18T13:08:49.910Z,34.49
2022-08-18T13:09:53.800Z,34.47
2022-08-18T13:10:56.428Z,34.43
2022-08-18T13:12:00.136Z,34.42
2022-08-18T13:13:01.932Z,34.39
2022-08-18T13:14:08.652Z,34.40
2022-08-18T13:15:11.324Z,34.54
2022-08-18T13:16:16.326Z,34.59
2022-08-18T13:17:34.296Z,34.52
2022-08-18T13:18:37.720Z,34.55
2022-08-18T13:19:39.445Z,34.55
2022-08-18T13:20:45.104Z,34.62
2022-08-18T13:21:47.461Z,34.65
2022-08-18T13:22:51.210Z,34.68
2022-08-18T13:23:55.123Z,34.59
2022-08-18T13:24:56.811Z,34.63
2022-08-18T13:26:02.038Z,34.71
2022-08-18T13:27:18.573Z,34.72
2022-08-18T13:28:25.041Z,34.69
2022-08-18T13:29:32.136Z,34.66
2022-08-18T13:30:35.512Z,34.70
2022-08-18T13:31:38.865Z,34.59
2022-08-18T13:32:47.120Z,34.52
2022-08-18T13:34:00.843Z,34.50
2022-08-18T13:35:13.366Z,34.54
2022-08-18T13:36:15.373Z,34.65
2022-08-18T13:37:18.202Z,34.67
2022-08-18T13:38:27.252Z,34.68
2022-08-18T13:39:31.300Z,34.67
2022-08-18T13:40:37.520Z,34.69
2022-08-18T13:41:49.721Z,34.69
2022-08-18T13:42:51.844Z,34.70
2022-08-18T13:43:53.485Z,34.66
2022-08-18T13:44:59.398Z,34.60
2022-08-18T13:46:29.959Z,34.58
2022-08-18T13:47:38.214Z,34.65
2022-08-18T13:48:41.770Z,34.72
2022-08-18T13:49:43.528Z,34.77
2022-08-18T13:51:02.000Z,34.75
2022-08-18T13:52:05.588Z,34.72
2022-08-18T13:53:21.271Z,34.79
2022-08-18T13:54:31.434Z,34.81
2022-08-18T13:55:33.501Z,34.83
2022-08-18T13:56:36.833Z,34.85
2022-08-18T13:57:48.243Z,34.85
2022-08-18T13:58:53.376Z,34.81
2022-08-18T13:59:55.296Z,34.83
2022-08-18T14:01:39.489Z,34.72
2022-08-18T14:02:26.889Z,34.60
2022-08-18T14:03:42.136Z,34.61
2022-08-18T14:04:49.396Z,34.55
2022-08-18T14:06:00.570Z,34.48
2022-08-18T14:07:07.217Z,34.42
2022-08-18T14:08:12.582Z,34.40
2022-08-18T14:09:27.713Z,34.41
2022-08-18T14:10:38.559Z,34.60
2022-08-18T14:11:41.817Z,34.64
2022-08-18T14:12:44.936Z,34.53
2022-08-18T14:13:48.869Z,34.52
2022-08-18T14:14:52.808Z,34.49
2022-08-18T14:15:56.677Z,34.42
2022-08-18T14:16:59.353Z,34.41
2022-08-18T14:18:00.969Z,34.39
2022-08-18T14:19:26.514Z,34.47
2022-08-18T14:20:48.808Z,34.46
2022-08-18T14:22:13.232Z,34.39
2022-08-18T14:23:34.173Z,34.31
2022-08-18T14:24:55.748Z,34.35
2022-08-18T14:26:16.338Z,34.35
2022-08-18T14:27:24.220Z,34.37
2022-08-18T14:28:32.336Z,34.41
2022-08-18T14:29:46.248Z,34.47
2022-08-18T14:30:50.703Z,34.50
2022-08-18T14:31:57.406Z,34.52
2022-08-18T14:32:59.535Z,34.54
2022-08-18T14:34:04.346Z,34.63
2022-08-18T14:36:03.863Z,34.66
2022-08-18T14:36:30.602Z,34.65
2022-08-18T14:37:33.898Z,34.65
2022-08-18T14:38:36.625Z,34.63
2022-08-18T14:39:39.950Z,34.62
2022-08-18T14:40:44.632Z,34.59
2022-08-18T14:41:49.383Z,34.59
2022-08-18T14:42:56.537Z,34.58
2022-08-18T14:44:13.646Z,34.50
2022-08-18T14:45:17.797Z,34.48
2022-08-18T14:46:30.617Z,34.49
2022-08-18T14:47:34.489Z,34.44
2022-08-18T14:48:39.146Z,34.43
2022-08-18T14:49:48.154Z,34.44
2022-08-18T14:50:55.342Z,34.50
2022-08-18T14:52:01.272Z,34.58
2022-08-18T14:53:03.018Z,34.58
2022-08-18T14:54:04.625Z,34.62
2022-08-18T14:55:09.203Z,34.55
2022-08-18T14:56:12.265Z,34.52
2022-08-18T14:57:15.091Z,34.50
2022-08-18T14:58:16.893Z,34.46
2022-08-18T14:59:20.505Z,34.49
2022-08-18T15:00:22.842Z,34.52
2022-08-18T15:01:26.616Z,34.51
2022-08-18T15:02:28.543Z,34.47
2022-08-18T15:03:31.853Z,34.48
2022-08-18T15:04:33.838Z,34.48
2022-08-18T15:05:40.213Z,34.46
2022-08-18T15:06:44.078Z,34.48
2022-08-18T15:07:58.845Z,34.50
2022-08-18T15:09:00.521Z,34.47
2022-08-18T15:10:15.253Z,34.43
2022-08-18T15:11:18.177Z,34.50
2022-08-18T15:12:25.230Z,34.48
2022-08-18T15:13:26.943Z,34.47
2022-08-18T15:14:37.570Z,34.48
2022-08-18T15:15:50.516Z,34.45